Weather observations for the past three days for
Bastrop, Morehouse Memorial Airport
Metric (Imperial)
Date Time (cdt) Wind (kph) Vis. (km) Weather Sky Cond. Temperature (ºC) Relative Humidity Wind Chill (°C) Heat Index (°C) Pressure Precipitation (cm)
Air Dwpt 6 hour altimeter (cm) sea level (mb) 1 hr 3 hr 6 hr
Max. Min.
01 20:30 Calm 0.00 Fair CLR 27.5 22.4 74% 30 76.17 0.0
01 20:10 Calm 0.00 Fair CLR 27.4 22.6 75% 30 76.17 0.0
01 19:50 Calm 0.00 Fair CLR 28.3 22.6 71% 31 76.15 0.0
01 19:30 Calm 0.00 Fair CLR 29.3 22.6 67% 33 76.15 0.0
01 19:10 Calm 0.00 Fair CLR 31.1 22.5 60% 35 76.12 0.0
01 18:30 Calm 0.00 Fair CLR 33.3 21.9 51% 37 76.15 0.0
01 18:10 Calm 0.00 Fair CLR 33.8 21.5 49% 37 76.15 0.0
01 17:50 Calm 0.00 Fair CLR 34.3 21.2 46% 38 76.15 0.0
01 17:30 Calm 0.00 Fair CLR 34.6 21.1 45% 38 76.12 0.0
01 17:10 Calm 0.00 Fair CLR 34.8 21.2 45% 38 76.12 0.0
01 16:50 Calm 0.00 Fair CLR 35 21.1 44% 39 76.15 0.0
01 16:30 Calm 0.00 Fair CLR 34.9 21.3 45% 39 76.17 0.0
01 16:10 Calm 0.00 Fair CLR 34.9 21.2 45% 39 76.2 0.0
01 15:50 E 6 0.00 Fair CLR 35 20.8 43% 38 76.23 0.0
01 15:30 SE 11 0.00 Fair CLR 34.8 20.4 43% 38 76.25 0.0
01 15:10 Calm 0.00 Fair CLR 34.9 21 44% 38 76.28 0.0
01 14:50 Calm 0.00 Fair CLR 34.6 21.8 47% 39 76.28 0.0
01 14:30 Calm 0.00 Fair CLR 34.5 21.8 48% 39 76.28 0.0
01 14:10 Calm 0.00 Fair CLR 34.6 21.6 47% 39 76.28 0.0
01 13:30 Calm 0.00 Partly Cloudy SCT049 34.5 22 48% 39 76.3 0.0
01 13:10 Calm 0.00 Fair CLR 33.9 22 50% 38 76.33 0.0
01 12:30 E 6 0.00 Partly Cloudy SCT049 33.6 21.6 49% 37 76.35 0.0
01 12:10 E 9 0.00 Fair CLR 33.7 21.6 49% 37 76.38 0.0
01 11:30 Calm 0.00 Fair CLR 33.6 21.4 49% 37 76.4 0.0
01 11:10 Calm 0.00 Fair CLR 33.3 21.7 51% 37 76.4 0.0
01 10:50 Calm 0.00 Fair CLR 32.7 22.3 54% 37 76.4 0.0
01 10:30 Calm 0.00 Partly Cloudy SCT120 32.2 22.7 57% 37 76.4 0.0
01 10:10 Calm 0.00 Partly Cloudy SCT120 31.6 22.8 60% 36 76.4 0.0
01 09:50 Calm 0.00 Partly Cloudy SCT120 30.8 22.8 62% 35 76.4 0.0
01 09:30 Calm 0.00 Fair CLR 29.8 23.2 68% 34 76.4 0.0
01 09:10 Calm 0.00 Fair CLR 29.1 23.2 71% 33 76.43 0.0
01 08:50 Calm 0.00 Partly Cloudy SCT110 28.5 23.3 73% 32 76.4 0.0
01 08:30 Calm 0.00 Fair CLR 28 23.3 76% 31 76.43 0.0
01 08:10 Calm 0.00 Fair CLR 26.9 23.3 81% 30 76.43 0.0
01 07:30 Calm 0.00 NULL NULL 24.5 23.2 93% 24 76.4 0.0
01 07:10 Calm 0.00 NULL NULL 23.1 22.6 97% 76.4 0.0
01 06:50 Calm 0.00 NULL NULL 22.7 22.1 27.3 22.7 96% 76.38 0.0
01 06:30 Calm 0.00 NULL NULL 22.8 22.3 97% 76.35 0.0
01 06:10 Calm 0.00 NULL NULL 22.8 22.3 97% 76.35 0.0
01 05:50 Calm 0.00 NULL NULL 22.7 22.1 96% 76.33 0.0
01 05:30 Calm 0.00 NULL NULL 23 22.2 95% 76.33 0.0
01 05:10 Calm 0.00 NULL NULL 23 22.1 95% 76.33 0.0
01 04:30 Calm 0.00 NULL NULL 23.4 22.5 95% 76.33 0.0
01 04:10 Calm 0.00 NULL NULL 23.5 22.3 93% 76.33 0.0
01 03:50 Calm 0.00 NULL NULL 23.8 22.3 91% 76.3 0.0
01 03:30 Calm 0.00 NULL NULL 24.1 22.4 90% 24 76.3 0.0
01 03:10 Calm 0.00 NULL NULL 24.1 22.5 91% 24 76.3 0.0
01 02:30 Calm 0.00 NULL NULL 24.4 22.2 88% 25 76.3 0.0
01 02:10 Calm 0.00 Fair CLR 25.1 22.2 84% 26 76.28 0.0
01 01:50 Calm 0.00 Fair CLR 26 22.2 80% 28 76.28 0.0
01 01:30 Calm 0.00 Fair CLR 26.1 22 78% 28 76.28 0.0
01 01:10 Calm 0.00 Fair CLR 27.1 21.8 73% 29 76.28 0.0
01 00:50 Calm 0.00 Fair CLR 25.9 21.8 31.1 24.7 78% 27 76.28 0.0
01 00:30 Calm 0.00 Fair CLR 25 22.1 84% 26 76.25 0.0
01 00:10 Calm 0.00 Fair CLR 24.8 22 84% 25 76.25 0.0
31 23:50 Calm 0.00 Fair CLR 24.7 22.3 87% 25 76.25 0.0
31 23:30 Calm 0.00 Fair CLR 25.1 22.1 84% 26 76.23 0.0
31 23:10 Calm 0.00 Fair CLR 24.9 22.2 85% 26 76.25 0.0
31 22:50 Calm 0.00 Fair CLR 25.1 22.2 84% 26 76.25 0.0
31 22:30 Calm 0.00 Fair CLR 25.1 22.4 85% 26 76.25 0.0
31 22:10 Calm 0.00 Fair CLR 25.6 22.2 82% 27 76.25 0.0
31 21:50 Calm 0.00 Fair CLR 26.5 22 76% 28 76.25 0.0
31 21:30 Calm 0.00 Fair CLR 26.1 22.1 79% 28 76.23 0.0
31 21:10 Calm 0.00 Fair CLR 26.4 22.1 77% 28 76.23 0.0
31 20:30 Calm 0.00 Fair CLR 26.8 22.2 76% 29 76.2 0.0
31 20:10 Calm 0.00 Fair CLR 27.2 22.3 75% 30 76.2 0.0
31 19:50 Calm 0.00 Fair CLR 28 22.2 71% 31 76.2 0.0
31 19:30 Calm 0.00 Fair CLR 28.3 22.6 71% 31 76.17 0.0
31 19:10 Calm 0.00 Fair CLR 29.9 23.2 67% 34 76.17 0.0
31 18:30 Calm 0.00 Fair CLR 33.4 22.6 53% 38 76.2 0.0
31 18:10 Calm 0.00 Fair CLR 34.4 21.1 46% 38 76.2 0.0
31 17:50 Calm 0.00 Fair CLR 35.1 20.8 43% 38 76.2 0.0
31 17:30 Calm 0.00 Fair CLR 35.1 20.3 42% 38 76.2 0.0
31 17:10 Calm 0.00 Fair CLR 35.6 20.3 41% 39 76.2 0.0
31 16:50 SE 6 0.00 Partly Cloudy SCT070 SCT100 35.6 20.5 41% 39 76.2 0.0
31 16:30 Calm 0.00 Partly Cloudy SCT055 SCT070 SCT095 35.6 20.6 41% 39 76.23 0.0
31 16:10 E 6 0.00 Partly Cloudy SCT055 SCT080 35.9 21.1 42% 40 76.23 0.0
31 15:50 SE 7 0.00 Mostly Cloudy SCT055 SCT065 BKN080 35.5 21.8 45% 40 76.25 0.0
31 15:30 E 6 0.00 Mostly Cloudy SCT050 BKN065 35.6 21.7 44% 40 76.28 0.0
31 15:10 Calm 0.00 Mostly Cloudy SCT050 BKN065 33.2 21.9 51% 37 76.28 0.0
31 14:50 Calm 0.00 Mostly Cloudy BKN050 BKN065 34.5 21.3 46% 38 76.28 0.0
31 14:30 Calm 0.00 Partly Cloudy SCT065 34.3 21.5 47% 38 76.3 0.0
31 14:10 S 6 0.00 Partly Cloudy SCT049 34.6 21.2 46% 38 76.3 0.0
31 13:50 Calm 0.00 Mostly Cloudy SCT049 BKN060 34.4 21.3 46% 38 76.33 0.0
31 13:30 Calm 0.00 Partly Cloudy SCT049 SCT060 34 21.5 48% 38 76.35 0.0
31 13:10 Calm 0.00 Partly Cloudy SCT046 33.9 21.6 49% 38 76.38 0.0
31 12:50 S 7 0.00 Mostly Cloudy BKN046 33.5 21.8 34 22.4 50% 37 76.4 0.0
31 12:30 Calm 0.00 Mostly Cloudy BKN046 33.6 21.9 50% 38 76.4 0.0
31 12:10 Calm 0.00 Partly Cloudy SCT044 33.1 21.3 50% 36 76.43 0.0
31 11:50 Calm 0.00 Fair CLR 32.9 21.4 51% 36 76.45 0.0
31 11:30 Calm 0.00 Fair CLR 32.7 21.1 50% 36 76.48 0.0
31 11:10 Calm 0.00 Fair CLR 32.6 21.7 53% 36 76.48 0.0
31 10:50 Calm 0.00 Fair CLR 31.7 21.2 54% 35 76.48 0.0
31 10:30 Calm 0.00 Fair CLR 31.2 21.7 57% 35 76.48 0.0
31 10:10 Calm 0.00 Fair CLR 30.5 22.5 62% 34 76.48 0.0
31 09:50 Calm 0.00 Fair CLR 30.3 22.6 63% 34 76.45 0.0
31 09:30 Calm 0.00 Fair CLR 29.4 22.7 67% 33 76.45 0.0
31 09:10 Calm 0.00 Fair CLR 28.5 22.6 70% 32 76.45 0.0
31 08:50 Calm 0.00 Fair CLR 27.7 22.7 74% 31 76.45 0.0
31 08:30 Calm 0.00 Fair CLR 27.3 23.2 78% 30 76.45 0.0
31 08:10 Calm 0.00 Fair CLR 26.3 23.1 83% 28 76.45 0.0
31 07:50 Calm 0.00 NULL NULL 25 22.8 88% 26 76.43 0.0
31 07:30 Calm 0.00 NULL NULL 23.9 22.8 94% 23 76.38 0.0
31 07:10 Calm 0.00 NULL NULL 22.9 22.5 98% 76.38 0.0
31 06:50 Calm 0.00 NULL NULL 22.2 21.6 24.8 22 96% 76.35 0.0
31 06:30 Calm 0.00 NULL NULL 22.6 22 96% 76.33 0.0
31 06:10 Calm 0.00 NULL NULL 22.7 22 96% 76.3 0.0
31 05:30 Calm 0.00 NULL NULL 23.1 21.9 93% 76.3 0.0
31 05:10 Calm 0.00 NULL NULL 23.2 22.2 94% 76.28 0.0
31 04:50 Calm 0.00 NULL NULL 23 22 94% 76.28 0.0
31 04:30 Calm 0.00 NULL NULL 23.1 21.7 92% 76.28 0.0
31 04:10 Calm 0.00 NULL NULL 23.3 21.9 92% 76.28 0.0
31 03:50 Calm 0.00 NULL NULL 23.5 21.9 91% 76.28 0.0
31 03:30 Calm 0.00 NULL NULL 24.2 22 88% 24 76.25 0.0
31 03:10 Calm 0.00 NULL NULL 24.4 22 87% 25 76.25 0.0
31 02:50 Calm 0.00 Fair CLR 24.5 21.9 86% 25 76.28 0.0
31 02:30 Calm 0.00 Fair CLR 24.7 21.8 84% 25 76.28 0.0
31 02:10 Calm 0.00 NULL NULL 24 21.8 88% 24 76.28 0.0
31 01:50 Calm 0.00 Fair CLR 24.5 21.7 84% 25 76.28 0.0
31 01:30 Calm 0.00 Fair CLR 24.2 21.7 86% 24 76.28 0.0
31 01:10 Calm 0.00 NULL NULL 24.1 21.6 86% 24 76.28 0.0
31 00:50 Calm 0.00 NULL NULL 24.1 21.6 30 23.5 86% 24 76.28 0.0
31 00:30 Calm 0.00 Fair CLR 24.2 21.5 85% 24 76.28 0.0
31 00:10 Calm 0.00 NULL NULL 23.6 21.5 88% 76.28 0.0
30 23:50 Calm 0.00 NULL NULL 23.7 21.6 88% 76.28 0.0
30 23:30 Calm 0.00 NULL NULL 23.7 21.5 88% 76.28 0.0
30 23:10 Calm 0.00 Fair CLR 24.1 21.6 86% 24 76.28 0.0
30 22:50 Calm 0.00 Fair CLR 24.4 21.6 84% 25 76.28 0.0
30 22:30 Calm 0.00 Fair CLR 24.4 21.6 84% 25 76.25 0.0
30 22:10 Calm 0.00 Fair CLR 25.3 21.6 80% 26 76.25 0.0
30 21:50 Calm 0.00 Fair CLR 25.8 21.5 77% 27 76.23 0.0
30 21:30 Calm 0.00 Fair CLR 26 21.5 76% 28 76.23 0.0
30 21:10 Calm 0.00 Fair CLR 25.9 21.4 76% 27 76.2 0.0
30 20:50 Calm 0.00 Fair CLR 26.2 21.2 74% 28 76.2 0.0
30 20:30 Calm 0.00 Fair CLR 26.5 20.9 71% 28 76.17 0.0
30 20:10 Calm 0.00 Fair CLR 26.4 20.9 72% 28 76.15 0.0
30 19:50 Calm 0.00 Fair CLR 27.1 20.7 68% 29 76.15 0.0
30 19:30 Calm 0.00 Fair CLR 27.7 20.9 67% 30 76.12 0.0
30 19:10 Calm 0.00 Fair CLR 28.8 21.6 65% 31 76.12 0.0
30 18:50 Calm 0.00 Fair CLR 30.5 22.1 36 30.5 61% 34 76.15 0.0
30 18:30 Calm 0.00 Fair CLR 32.2 21.9 55% 36 76.15 0.0
30 18:10 Calm 0.00 Fair CLR 33.5 20.4 46% 36 76.15 0.0
30 17:50 Calm 0.00 Fair CLR 34.5 18.2 38% 36 76.15 0.0
30 17:30 Calm 0.00 Fair CLR 35.1 16.2 32% 35 76.15 0.0
30 17:10 Calm 0.00 Fair CLR 35.3 15.1 30% 35 76.15 0.0
30 16:50 Calm 0.00 Fair CLR 35.4 15.2 30% 35 76.15 0.0
30 16:30 Calm 0.00 Fair CLR 35.5 14.9 29% 35 76.17 0.0
30 16:10 Calm 0.00 Fair CLR 35.7 15.7 30% 36 76.17 0.0
30 15:50 Calm 0.00 Fair CLR 35.9 14.7 28% 36 76.2 0.0
30 15:30 Calm 0.00 Fair CLR 35.7 15.2 29% 36 76.23 0.0
30 15:10 Calm 0.00 Fair CLR 35.2 14.4 29% 35 76.25 0.0
30 14:50 Calm 0.00 Fair CLR 35.5 15.9 31% 36 76.25 0.0
30 14:30 Calm 0.00 Fair CLR 35.4 16 31% 36 76.28 0.0
30 14:10 Calm 0.00 Fair CLR 34.9 15.7 32% 35 76.28 0.0
30 13:50 Calm 0.00 Fair CLR 35.3 16.3 32% 36 76.3 0.0
30 13:30 Calm 0.00 Fair CLR 35.1 18.1 36% 36 76.33 0.0
30 13:10 Calm 0.00 Fair CLR 34.6 17.5 36% 35 76.33 0.0
30 12:50 Calm 0.00 Fair CLR 34.6 18.8 34.6 20 39% 36 76.33 0.0
30 12:30 Calm 0.00 Fair CLR 34 18.2 39% 35 76.35 0.0
30 12:10 Calm 0.00 Fair CLR 33.7 17.8 39% 35 76.38 0.0
30 11:50 Calm 0.00 Fair CLR 33.5 17.3 38% 34 76.4 0.0
30 11:30 Calm 0.00 Fair CLR 33.2 19.4 44% 35 76.4 0.0
30 11:10 Calm 0.00 Fair CLR 32.5 18.9 44% 34 76.4 0.0
30 10:50 Calm 0.00 Fair CLR 32 19 46% 33 76.4 0.0
30 10:30 Calm 0.00 Fair CLR 31 19.1 49% 32 76.4 0.0
30 10:10 Calm 0.00 Fair CLR 30.1 19.8 54% 32 76.4 0.0
30 09:50 Calm 0.00 Fair CLR 29.3 19.7 56% 31 76.4 0.0
30 09:30 Calm 0.00 Fair CLR 28.6 19.5 58% 30 76.4 0.0
30 09:10 Calm 0.00 Fair CLR 27.3 19.1 61% 29 76.4 0.0
30 08:50 Calm 0.00 Fair CLR 26.5 19 63% 28 76.4 0.0
30 08:30 Calm 0.00 Fair CLR 25.6 19.4 69% 27 76.4 0.0
30 08:10 Calm 0.00 Fair CLR 24.3 19.8 76% 25 76.4 0.0
30 07:50 Calm 0.00 Fair CLR 23.4 19.6 79% 76.4 0.0
30 07:30 Calm 0.00 NULL NULL 21.6 19.3 87% 76.4 0.0
30 07:10 Calm 0.00 NULL NULL 20.5 18.5 88% 76.38 0.0
30 06:50 Calm 0.00 NULL NULL 19.7 18.5 22.1 19.3 93% 76.35 0.0
30 06:30 Calm 0.00 NULL NULL 19.5 18.4 93% 76.35 0.0
30 06:10 Calm 0.00 NULL NULL 19.6 18.4 93% 76.33 0.0
30 05:50 Calm 0.00 NULL NULL 19.6 18.3 92% 76.33 0.0
30 05:30 Calm 0.00 NULL NULL 19.9 18.5 92% 76.33 0.0
30 05:10 Calm 0.00 NULL NULL 20.1 18.5 91% 76.3 0.0
30 04:50 Calm 0.00 NULL NULL 20.4 18.5 89% 76.28 0.0
30 04:30 Calm 0.00 NULL NULL 20.1 18.6 91% 76.28 0.0
30 04:10 Calm 0.00 NULL NULL 20 18.4 91% 76.28 0.0
30 03:50 Calm 0.00 NULL NULL 20.7 18.1 85% 76.28 0.0
30 03:30 Calm 0.00 NULL NULL 20.3 18.6 90% 76.28 0.0
30 03:10 Calm 0.00 NULL NULL 20.7 18.6 88% 76.28 0.0
30 02:50 Calm 0.00 NULL NULL 21.2 18.7 86% 76.3 0.0
30 02:30 Calm 0.00 NULL NULL 21 18.9 88% 76.3 0.0
30 02:10 Calm 0.00 Fair CLR 21.6 19 85% 76.3 0.0
30 01:50 Calm 0.00 Fair CLR 22.1 18.9 82% 76.33 0.0
30 01:30 Calm 0.00 NULL NULL 20.9 19.5 92% 76.3 0.0
30 01:10 Calm 0.00 NULL NULL 21.2 19.6 91% 76.33 0.0
30 00:50 Calm 0.00 NULL NULL 21.2 19.6 29.5 21.1 91% 76.33 0.0
30 00:30 Calm 0.00 NULL NULL 21.6 19.5 88% 76.33 0.0
30 00:10 Calm 0.00 Fair CLR 22.5 19.6 84% 76.33 0.0
29 23:50 Calm 0.00 Fair CLR 23 19.6 81% 76.33 0.0
29 23:30 Calm 0.00 Fair CLR 23 19.6 81% 76.3 0.0
29 23:10 Calm 0.00 Fair CLR 24 19.4 76% 25 76.3 0.0
29 22:30 Calm 0.00 Fair CLR 24.2 19.6 76% 25 76.3 0.0
29 22:10 Calm 0.00 Fair CLR 24.1 19.7 77% 25 76.3 0.0
29 21:50 Calm 0.00 Fair CLR 24 19.7 77% 25 76.3 0.0
29 21:30 Calm 0.00 Fair CLR 24.1 19.2 74% 25 76.28 0.0
29 21:10 Calm 0.00 Fair CLR 24.5 19.9 76% 25 76.28 0.0
Date Time (cdt) Wind (kph) Vis. (km) Weather Sky Cond. Air Dwpt Max. Min. Relative Humidity Wind Chill (°C) Heat Index (°C) altimeter (cm) sea level (mb) 1 hr 3 hr 6 hr
6 hour
Temperature (ºC) Pressure Precipitation (cm)